Clinton, MS (39056)

9:59 AM CDT on August 01, 2014 (GMT -0500)
John Bell Williams, Raymond (KJVW) Elev 246 ft | 32.30 °N, 90.41 °W | Change Station

Current weather conditions updated 24 minutes ago

Clear
Clear
73 °F
Feels Like 73 °F
N
4
Wind Variable Wind from ESE

Today is forecast to be Cooler than yesterday. Thunderstorms.

Today
High -- | Low -- °F
--% Chance of Precip.
Yesterday
High -- | Low -- °F
Precip. -- in
6:16 AM 7:58 PM
Waxing Crescent, 27% visible
Pressure 30.03 in
Visibility 9.0 miles
Clouds Clear
Dew Point 68 °F
Humidity 83%
Rainfall 0.00 in
Snow Depth Not available.
UV 5 out of 12
Pollen 2.10 out of 12
Air Quality Not available.
Flu Activity Not available.
METAR KJVW 011435Z AUTO 12003KT 9SM CLR 23/20 A3003 RMK AO2

More Conditions Fewer Conditions

Pressure 30.03 in
Visibility 9.0 miles
Clouds Clear
Dew Point 68 °F
Humidity 83%
Rainfall 0.00 in
Snow Depth Not available.
UV 5 out of 12
Pollen 2.10 out of 12
Air Quality Not available.
Flu Activity Not available.
METAR KJVW 011435Z AUTO 12003KT 9SM CLR 23/20 A3003 RMK AO2

More Conditions Fewer Conditions

10-Day Weather Forecast

Almanac

Astronomy

Aug. 01, 2014 Rise Set
Actual Time 6:16 AM CDT 7:58 PM CDT
Civil Twilight 5:49 AM CDT 8:25 PM CDT
Nautical Twilight 5:17 AM CDT 8:57 PM CDT
Astronomical Twilight 4:43 AM CDT 9:31 PM CDT
Moon 11:18 AM CDT 11:06 PM CDT
Length of Visible Light 14h 36m
Length of Day
13h 42m
Tomorrow will be 1m 29s shorter.
Waxing Crescent, 27% of the Moon is Illuminated
Today
Waxing Crescent
Aug 3
First Quarter
Aug 10
Full
Aug 17
Last Quarter
Aug 25
New

Today's Extremes

State Highs State Lows

Community

WunderPhotos

Upload Photos

1,739,599 photos uploaded!

Nearby

Snow Depth

Station Depth Elevation
No new snow has been reported.

Earthquake Activity

City Distance Mag. Time & Date
No recent earthquake activity has been reported nearby.
Minimum magnitude displayed is 2.5.

Coastal Water Temperatures

Place Temperature
No Stations Reporting

Nearby Weather Stations

Station Location Temp. Heat Index Dew Point Humidity Wind Precip. Elev Updated Type
Brinkly, Jackson, MS 75.6 °F 76 °F 69 °F 81% NNE  at  2.2 mph - / hr 344 ft 9:58 AM CDT Normal
Red Oak, Gluckstadt, MS 74.0 °F 75 °F 67 °F 78% WSW  at  0.0 mph 0.00 in / hr 289 ft 9:59 AM CDT Rapid Fire
Tank, Crystal Springs, MS 71.6 °F - 68 °F 90% SSE  at  0.0 mph - / hr 338 ft 9:49 AM CDT Normal
Country Meadows, Brandon, MS 78.1 °F 80 °F 69 °F 73% ESE  at  0.0 mph - / hr 367 ft 9:57 AM CDT Normal
Raintree Place, Brandon, MS 77.4 °F 79 °F 66 °F 69% ENE  at  2.2 mph - / hr 410 ft 9:55 AM CDT Normal

Show More Stations Show Fewer Stations